Time;durP1;ratioP1;P1;durP2;ratioP2;P2;SDS_P1;SDS_P2;PMS_P1;PMS_P2;Temp;Humidity;BMP_temperature;BMP_pressure;BME280_temperature;BME280_humidity;BME280_pressure;Samples;Min_cycle;Max_cycle;Signal;HPM_P1;HPM_P2
2022/08/01 00:00:10;;;;;;;6.35;5.55;;;;;;;25.97;43.31;99318.00;5050175;28;20465;-37
2022/08/01 00:02:40;;;;;;;6.78;5.45;;;;;;;26.10;43.06;99303.47;5050241;28;20025;-37
2022/08/01 00:05:07;;;;;;;5.90;5.40;;;;;;;26.05;43.19;99300.88;5049582;28;20108;-37
2022/08/01 00:07:37;;;;;;;6.07;5.47;;;;;;;26.12;43.05;99287.59;5049603;28;20037;-37
2022/08/01 00:10:05;;;;;;;7.38;5.70;;;;;;;26.25;42.84;99307.63;5049971;28;20037;-37
2022/08/01 00:12:30;;;;;;;5.97;5.38;;;;;;;26.28;42.32;99296.09;5049763;28;20445;-37
2022/08/01 00:14:55;;;;;;;7.88;5.30;;;;;;;26.11;42.44;99298.78;5049865;28;20041;-37
2022/08/01 00:17:21;;;;;;;6.20;5.60;;;;;;;26.33;42.31;99295.13;5049701;28;20496;-37
2022/08/01 00:19:46;;;;;;;5.90;5.40;;;;;;;26.19;42.38;99287.09;5049528;28;20036;-37
2022/08/01 00:22:12;;;;;;;5.90;5.25;;;;;;;26.42;42.07;99300.59;5049782;28;20033;-36
2022/08/01 00:24:37;;;;;;;6.10;5.60;;;;;;;26.19;42.42;99292.53;5050126;28;20028;-37
2022/08/01 00:27:03;;;;;;;6.22;5.63;;;;;;;26.31;41.78;99290.00;5053622;28;20021;-37
2022/08/01 00:29:28;;;;;;;5.70;5.20;;;;;;;26.19;42.18;99291.75;5053483;28;20021;-37
2022/08/01 00:31:53;;;;;;;5.85;5.35;;;;;;;26.27;41.90;99286.31;5053664;28;20540;-36
2022/08/01 00:34:19;;;;;;;6.22;5.63;;;;;;;26.37;41.56;99293.38;5053626;28;20029;-37
2022/08/01 00:36:44;;;;;;;5.82;5.32;;;;;;;26.33;41.59;99297.84;5053643;28;20025;-36
2022/08/01 00:39:10;;;;;;;6.10;5.50;;;;;;;26.33;41.46;99295.13;5053579;28;20066;-36
2022/08/01 00:41:35;;;;;;;6.15;5.55;;;;;;;26.07;41.99;99298.63;5053390;28;20027;-36
2022/08/01 00:44:05;;;;;;;5.82;5.22;;;;;;;26.22;41.85;99296.59;5039295;28;20022;-37
2022/08/01 00:46:31;;;;;;;6.20;5.60;;;;;;;26.22;41.91;99300.09;5033458;28;20056;-37
2022/08/01 00:48:57;;;;;;;6.30;5.70;;;;;;;26.14;41.70;99303.59;5033660;28;20424;-37
2022/08/01 00:51:22;;;;;;;5.80;5.13;;;;;;;25.98;41.97;99297.78;5033415;28;20036;-37
2022/08/01 00:53:49;;;;;;;6.07;5.47;;;;;;;26.10;41.79;99311.63;5033231;28;20033;-36
2022/08/01 00:56:15;;;;;;;6.72;5.30;;;;;;;26.19;41.35;99308.13;5033546;28;20021;-36
2022/08/01 00:58:40;;;;;;;5.93;5.43;;;;;;;26.20;41.67;99305.06;5033264;28;20052;-37
2022/08/01 01:01:06;;;;;;;6.25;5.20;;;;;;;26.20;41.51;99305.06;5032983;28;20124;-37
2022/08/01 01:03:31;;;;;;;6.18;5.07;;;;;;;26.15;41.22;99299.75;5033142;28;20148;-36
2022/08/01 01:06:24;;;;;;;5.80;5.30;;;;;;;25.99;41.72;99293.97;5033216;28;20166;-36
2022/08/01 01:09:05;;;;;;;6.38;5.47;;;;;;;25.74;42.41;99300.88;5033177;28;20043;-36
2022/08/01 01:11:47;;;;;;;5.65;5.15;;;;;;;25.89;41.93;99299.66;5032902;28;20053;-36
2022/08/01 01:14:46;;;;;;;5.95;5.32;;;;;;;25.84;42.06;99303.34;5032812;28;20120;-37
2022/08/01 01:17:16;;;;;;;7.32;5.25;;;;;;;25.77;41.99;99307.66;5033229;28;20402;-37
2022/08/01 01:19:47;;;;;;;5.82;5.32;;;;;;;25.70;41.85;99316.25;5033565;28;20520;-37
2022/08/01 01:22:51;;;;;;;5.88;5.22;;;;;;;25.78;41.91;99309.25;5033329;28;20028;-37
2022/08/01 01:25:48;;;;;;;5.43;5.03;;;;;;;25.41;42.60;99301.25;5033346;28;20040;-37
2022/08/01 01:28:50;;;;;;;5.78;5.13;;;;;;;25.58;42.22;99308.69;5033787;28;20044;-37
2022/08/01 01:31:20;;;;;;;6.63;5.10;;;;;;;25.56;42.25;99308.19;5033392;28;20488;-37
2022/08/01 01:33:46;;;;;;;5.93;5.32;;;;;;;25.45;42.26;99304.94;5033179;28;20025;-37
2022/08/01 01:36:13;;;;;;;6.00;5.40;;;;;;;25.44;42.74;99305.28;5032655;28;20029;-37
2022/08/01 01:38:44;;;;;;;6.30;5.70;;;;;;;25.49;42.68;99313.28;5033197;28;20044;-37
2022/08/01 01:41:15;;;;;;;5.53;5.03;;;;;;;25.45;42.51;99304.16;5033162;28;20040;-37
2022/08/01 01:43:42;;;;;;;5.65;5.15;;;;;;;25.57;42.46;99312.56;5044442;28;20025;-37
2022/08/01 01:46:10;;;;;;;7.28;5.40;;;;;;;25.50;42.79;99314.91;5053289;28;20056;-37
2022/08/01 01:48:37;;;;;;;6.43;5.25;;;;;;;25.43;42.73;99309.91;5053278;28;20025;-37
2022/08/01 01:51:04;;;;;;;5.53;5.07;;;;;;;25.45;42.83;99315.84;5053073;28;20072;-37
2022/08/01 01:53:33;;;;;;;5.90;5.38;;;;;;;25.45;42.50;99304.94;5052816;28;20465;-35
2022/08/01 01:56:00;;;;;;;6.10;5.50;;;;;;;25.32;42.98;99301.22;5052452;28;20596;-38
2022/08/01 01:58:27;;;;;;;5.70;5.20;;;;;;;25.28;42.99;99297.47;5052945;28;20410;-35
2022/08/01 02:00:56;;;;;;;6.07;5.55;;;;;;;25.26;43.19;99301.66;5053055;28;20025;-38
2022/08/01 02:03:23;;;;;;;6.10;5.50;;;;;;;25.23;43.30;99310.44;5052977;28;20108;-38
2022/08/01 02:05:53;;;;;;;5.90;5.30;;;;;;;25.17;43.29;99313.25;5052882;28;20025;-38
2022/08/01 02:08:18;;;;;;;;;;;;;;;25.13;43.43;99311.47;5053245;28;20029;-36
2022/08/01 02:11:17;;;;;;;5.70;5.18;;;;;;;24.97;43.80;99311.84;5052978;28;19936;-36
2022/08/01 02:13:32;;;;;;;6.20;5.20;;;;;;;25.06;43.44;99305.66;5052118;28;20143;-37
2022/08/01 02:15:58;;;;;;;5.95;5.35;;;;;;;25.17;43.15;99301.56;5052000;28;20021;-36
2022/08/01 02:18:24;;;;;;;6.00;5.40;;;;;;;25.13;43.41;99306.00;5052771;28;20104;-37
2022/08/01 02:20:52;;;;;;;5.15;4.75;;;;;;;25.20;42.98;99311.03;5052547;28;20415;-36
2022/08/01 02:23:18;;;;;;;5.20;4.80;;;;;;;24.98;43.20;99304.50;5052377;28;20035;-36
2022/08/01 02:25:50;;;;;;;5.57;5.07;;;;;;;25.01;43.21;99309.31;5052289;28;20020;-37
2022/08/01 02:28:25;;;;;;;5.60;5.03;;;;;;;25.09;42.95;99313.19;5052239;28;20021;-37
2022/08/01 02:30:50;;;;;;;5.60;5.10;;;;;;;25.15;42.92;99306.50;5052253;28;20053;-37
2022/08/01 02:33:23;;;;;;;6.13;4.68;;;;;;;25.04;43.05;99299.75;5052138;28;20053;-37
2022/08/01 02:35:51;;;;;;;5.25;4.75;;;;;;;25.13;42.95;99309.56;5052180;28;20039;-36
2022/08/01 02:38:20;;;;;;;5.20;4.70;;;;;;;25.16;42.62;99311.63;5051511;28;20120;-37
2022/08/01 02:40:49;;;;;;;7.20;4.72;;;;;;;24.97;43.17;99311.03;5052189;28;20029;-37
2022/08/01 02:43:20;;;;;;;5.32;4.65;;;;;;;25.00;43.12;99301.44;5051652;28;20078;-37
2022/08/01 02:45:49;;;;;;;6.53;4.90;;;;;;;24.94;43.10;99298.88;5051819;28;20552;-37
2022/08/01 02:48:18;;;;;;;5.47;4.68;;;;;;;24.87;43.12;99295.78;5051371;28;20052;-36
2022/08/01 02:50:47;;;;;;;4.88;4.47;;;;;;;24.91;43.00;99294.03;5051980;28;20059;-37
2022/08/01 02:53:16;;;;;;;6.50;4.60;;;;;;;25.02;42.76;99293.78;5051840;28;20111;-37
2022/08/01 02:55:44;;;;;;;6.03;4.63;;;;;;;24.93;42.84;99296.44;5051563;28;20051;-37
2022/08/01 02:58:12;;;;;;;4.80;4.40;;;;;;;25.11;42.37;99297.34;5051124;28;20032;-37
2022/08/01 03:00:40;;;;;;;5.03;4.45;;;;;;;24.90;42.52;99299.78;5051034;28;20024;-35
2022/08/01 03:03:07;;;;;;;4.63;4.22;;;;;;;24.85;42.61;99297.22;5051525;28;20048;-36
2022/08/01 03:05:35;;;;;;;5.30;4.05;;;;;;;24.97;42.15;99290.06;5049544;28;20025;-36
2022/08/01 03:08:01;;;;;;;4.45;3.75;;;;;;;24.83;42.54;99300.22;5051453;28;20025;-36
2022/08/01 03:10:28;;;;;;;5.03;4.30;;;;;;;24.82;42.42;99292.38;5051232;28;20021;-36
2022/08/01 03:12:57;;;;;;;4.50;4.10;;;;;;;24.49;42.81;99295.28;5051320;28;20049;-36
2022/08/01 03:15:26;;;;;;;8.15;6.82;;;;;;;24.57;42.67;99289.13;5051177;28;20021;-36
2022/08/01 03:17:54;;;;;;;17.00;14.45;;;;;;;24.64;42.65;99294.16;5050888;28;20096;-37
2022/08/01 03:20:24;;;;;;;12.50;9.93;;;;;;;24.66;42.34;99286.50;5051244;28;20033;-35
2022/08/01 03:22:52;;;;;;;6.88;5.88;;;;;;;24.62;42.33;99283.59;5051018;28;20554;-37
2022/08/01 03:25:20;;;;;;;5.40;4.10;;;;;;;24.59;42.47;99287.72;5051110;28;20040;-37
2022/08/01 03:27:51;;;;;;;5.18;3.80;;;;;;;24.46;42.31;99276.84;5050852;28;20017;-36
2022/08/01 03:30:17;;;;;;;5.40;4.22;;;;;;;24.60;42.10;99288.53;5050933;28;20114;-36
2022/08/01 03:32:43;;;;;;;5.10;3.80;;;;;;;24.57;42.15;99287.22;5051058;28;20445;-37
2022/08/01 03:35:08;;;;;;;4.20;3.67;;;;;;;24.71;41.52;99289.06;5050979;28;20107;-35
2022/08/01 03:37:40;;;;;;;4.18;3.78;;;;;;;24.75;41.67;99284.63;5050971;28;20100;-36
2022/08/01 03:40:08;;;;;;;4.45;3.80;;;;;;;24.84;41.50;99287.41;5051089;28;20040;-35
2022/08/01 03:42:41;;;;;;;4.85;3.60;;;;;;;24.64;41.61;99284.09;5040030;28;20166;-36
2022/08/01 03:45:10;;;;;;;6.22;3.55;;;;;;;24.38;42.19;99281.91;5051053;28;20041;-36
2022/08/01 03:47:36;;;;;;;3.90;3.50;;;;;;;24.45;41.77;99284.22;5050965;28;20028;-36
2022/08/01 03:50:04;;;;;;;3.97;3.53;;;;;;;24.59;41.43;99287.72;5050639;28;20028;-37
2022/08/01 03:52:31;;;;;;;8.20;3.97;;;;;;;24.76;41.01;99289.75;5050717;28;20108;-36
2022/08/01 03:55:02;;;;;;;6.00;3.70;;;;;;;24.93;40.86;99282.84;5050554;28;20365;-36
2022/08/01 03:57:29;;;;;;;4.10;3.60;;;;;;;25.05;40.46;99287.72;5050749;28;20100;-36
2022/08/01 03:59:58;;;;;;;6.03;3.50;;;;;;;25.36;39.84;99290.50;5050136;28;20095;-36
2022/08/01 04:02:25;;;;;;;;;;;;;;;25.68;39.40;99288.53;5050756;28;20029;-36
2022/08/01 04:04:50;;;;;;;11.93;9.25;;;;;;;26.07;38.29;99293.16;5050433;28;19962;-37
2022/08/01 04:07:23;;;;;;;6.25;3.70;;;;;;;26.27;38.05;99291.78;5050205;28;20036;-36
2022/08/01 04:09:48;;;;;;;4.43;3.38;;;;;;;26.25;37.87;99295.94;5050505;28;20029;-37
2022/08/01 04:12:14;;;;;;;4.60;3.60;;;;;;;26.31;37.52;99289.19;5050150;28;20107;-37
2022/08/01 04:14:39;;;;;;;6.50;4.00;;;;;;;26.60;37.24;99302.25;5049876;28;20025;-37
2022/08/01 04:17:05;;;;;;;4.40;4.00;;;;;;;26.81;36.73;99302.41;5049772;28;20023;-36
2022/08/01 04:19:30;;;;;;;7.47;4.88;;;;;;;26.74;37.04;99304.00;5049628;28;20361;-36
2022/08/01 04:21:56;;;;;;;4.28;3.63;;;;;;;26.96;36.70;99298.38;5048508;28;20405;-36
2022/08/01 04:24:23;;;;;;;3.75;3.40;;;;;;;27.13;36.51;99294.81;5032382;28;20017;-36
2022/08/01 04:26:51;;;;;;;5.03;3.60;;;;;;;27.35;36.01;99301.22;5046075;28;20029;-38
2022/08/01 04:29:19;;;;;;;4.00;3.60;;;;;;;27.99;34.74;99301.13;5046344;28;20036;-37
2022/08/01 04:31:47;;;;;;;4.47;3.53;;;;;;;27.63;35.66;99299.66;5040506;28;20031;-37
2022/08/01 04:34:17;;;;;;;7.50;3.65;;;;;;;27.71;35.27;99306.22;5049213;28;20032;-37
2022/08/01 04:36:45;;;;;;;4.18;3.45;;;;;;;27.96;35.00;99306.44;5049227;28;20025;-37
2022/08/01 04:39:11;;;;;;;6.37;3.30;;;;;;;28.41;34.27;99305.84;5048895;28;20130;-37
2022/08/01 04:41:39;;;;;;;4.78;3.17;;;;;;;28.83;33.50;99308.56;5048462;28;20374;-37
2022/08/01 04:44:06;;;;;;;4.55;3.20;;;;;;;29.03;32.96;99310.47;5048305;28;20374;-37
2022/08/01 04:46:34;;;;;;;4.25;3.35;;;;;;;28.52;33.80;99312.53;5046852;28;20021;-36
2022/08/01 04:49:00;;;;;;;5.53;3.60;;;;;;;28.78;33.25;99311.50;5046915;28;20053;-37
2022/08/01 04:51:26;;;;;;;13.63;8.65;;;;;;;29.00;33.01;99305.66;5047007;28;20473;-36
2022/08/01 04:53:51;;;;;;;5.80;3.72;;;;;;;29.29;32.06;99303.94;5047023;28;20025;-36
2022/08/01 04:56:18;;;;;;;6.32;3.35;;;;;;;29.72;31.70;99308.13;5047097;28;20040;-37
2022/08/01 04:58:44;;;;;;;6.07;3.00;;;;;;;30.42;30.43;99309.13;5047104;28;20028;-36
2022/08/01 05:01:10;;;;;;;4.90;3.08;;;;;;;29.54;31.18;99307.53;5047364;28;20025;-38
2022/08/01 05:03:36;;;;;;;4.47;3.22;;;;;;;29.59;30.95;99307.31;5048661;28;20021;-37
2022/08/01 05:06:02;;;;;;;7.65;2.92;;;;;;;29.86;30.79;99307.81;5048374;28;20056;-37
2022/08/01 05:08:28;;;;;;;6.90;3.30;;;;;;;29.94;30.42;99312.34;5048285;28;20435;-36
2022/08/01 05:10:53;;;;;;;6.30;3.00;;;;;;;29.72;30.88;99312.78;5048540;28;20116;-36
2022/08/01 05:13:19;;;;;;;4.22;3.20;;;;;;;30.35;30.55;99316.00;5050938;28;20034;-36
2022/08/01 05:15:45;;;;;;;8.77;3.33;;;;;;;29.78;30.92;99311.47;5051992;28;20025;-36
2022/08/01 05:18:11;;;;;;;4.72;3.25;;;;;;;29.87;30.64;99303.91;5052156;28;20055;-36
2022/08/01 05:20:36;;;;;;;7.35;3.70;;;;;;;30.47;30.27;99315.16;5052310;28;20075;-36
2022/08/01 05:23:03;;;;;;;5.95;4.00;;;;;;;30.71;29.70;99308.00;5052236;28;20390;-35
2022/08/01 05:25:28;;;;;;;5.45;3.42;;;;;;;30.12;30.59;99306.63;5052265;28;20028;-36
2022/08/01 05:27:54;;;;;;;6.07;4.03;;;;;;;30.37;30.35;99308.22;5051640;28;20021;-37
2022/08/01 05:30:19;;;;;;;4.03;3.10;;;;;;;30.27;30.39;99303.16;5051736;28;20021;-37
2022/08/01 05:32:45;;;;;;;7.65;3.25;;;;;;;30.94;29.87;99302.81;5050702;28;20024;-37
2022/08/01 05:35:10;;;;;;;4.72;3.10;;;;;;;31.65;28.42;99306.59;5051964;28;20024;-37
2022/08/01 05:37:36;;;;;;;6.07;3.22;;;;;;;31.81;27.86;99303.84;5052475;28;20033;-38
2022/08/01 05:40:01;;;;;;;11.60;3.17;;;;;;;31.10;28.25;99313.81;5052120;28;20118;-37
2022/08/01 05:42:27;;;;;;;14.07;3.53;;;;;;;30.39;29.34;99307.88;5050896;28;20029;-38
2022/08/01 05:44:52;;;;;;;12.15;3.15;;;;;;;30.68;28.68;99298.50;5032065;28;20161;-37
2022/08/01 05:47:18;;;;;;;5.10;2.78;;;;;;;31.17;27.68;99303.81;5032072;28;20501;-38
2022/08/01 05:49:45;;;;;;;5.38;2.83;;;;;;;31.59;27.47;99307.22;5032022;28;20044;-38
2022/08/01 05:52:10;;;;;;;7.15;2.80;;;;;;;32.29;26.30;99306.50;5032329;28;20600;-37
2022/08/01 05:54:36;;;;;;;6.55;3.13;;;;;;;32.33;26.63;99304.66;5032030;28;20076;-37
2022/08/01 05:57:01;;;;;;;3.70;2.90;;;;;;;32.33;26.34;99301.91;5032131;28;20378;-37
2022/08/01 05:59:28;;;;;;;3.28;2.70;;;;;;;32.22;26.46;99298.91;5032000;28;20497;-37
2022/08/01 06:01:54;;;;;;;3.55;2.40;;;;;;;31.82;26.26;99304.66;5031895;28;20025;-38
2022/08/01 06:04:19;;;;;;;4.88;2.60;;;;;;;32.39;25.17;99303.22;5031738;28;20558;-36
2022/08/01 06:06:44;;;;;;;4.68;2.90;;;;;;;31.90;25.51;99307.19;5031957;28;20037;-36
2022/08/01 06:09:10;;;;;;;3.83;2.60;;;;;;;32.29;25.21;99301.81;5032073;28;20112;-36
2022/08/01 06:11:35;;;;;;;5.28;2.60;;;;;;;33.06;24.18;99299.44;5031617;28;20048;-36
2022/08/01 06:14:01;;;;;;;4.78;2.53;;;;;;;33.62;23.37;99298.84;5034289;28;20029;-37
2022/08/01 06:16:26;;;;;;;3.15;2.45;;;;;;;33.86;22.57;99307.91;5040664;28;20090;-38
2022/08/01 06:18:52;;;;;;;6.53;2.17;;;;;;;33.31;23.18;99297.16;5041519;28;20032;-38
2022/08/01 06:21:17;;;;;;;7.38;2.20;;;;;;;33.06;23.15;99294.72;5047213;28;20096;-36
2022/08/01 06:23:43;;;;;;;4.45;2.10;;;;;;;32.99;23.22;99283.56;5050406;28;20029;-36
2022/08/01 06:26:09;;;;;;;3.55;2.10;;;;;;;33.08;23.16;99286.09;5051486;28;20460;-37
2022/08/01 06:28:34;;;;;;;4.15;2.08;;;;;;;33.53;22.86;99287.28;5051466;28;20056;-37
2022/08/01 06:30:59;;;;;;;3.53;2.15;;;;;;;33.50;22.72;99286.03;5051857;28;20029;-37
2022/08/01 06:33:26;;;;;;;5.93;2.20;;;;;;;34.34;21.78;99282.59;5051385;28;20043;-36
2022/08/01 06:35:51;;;;;;;7.28;2.20;;;;;;;33.93;21.79;99285.16;5050684;28;20025;-36
2022/08/01 06:38:17;;;;;;;9.38;2.30;;;;;;;33.69;22.21;99271.41;5050513;28;20027;-36
2022/08/01 06:40:42;;;;;;;3.75;2.10;;;;;;;33.61;22.61;99280.72;5050304;28;20028;-37
2022/08/01 06:43:08;;;;;;;7.68;2.03;;;;;;;33.76;22.27;99284.53;5032563;28;20037;-37
2022/08/01 06:45:33;;;;;;;3.90;2.60;;;;;;;33.72;22.32;99269.88;5030495;28;20017;-36
2022/08/01 06:47:58;;;;;;;4.35;2.00;;;;;;;34.15;21.91;99281.53;5030539;28;20036;-37
2022/08/01 06:50:24;;;;;;;5.95;2.33;;;;;;;33.97;22.22;99277.75;5031199;28;20363;-37
2022/08/01 06:52:49;;;;;;;3.83;2.30;;;;;;;34.47;22.14;99279.19;5031479;28;20072;-37
2022/08/01 06:55:15;;;;;;;5.60;2.30;;;;;;;34.13;22.04;99278.34;5031579;28;20080;-38
2022/08/01 06:57:48;;;;;;;6.22;2.42;;;;;;;33.17;22.41;99266.56;5032248;28;20067;-37
2022/08/01 07:00:16;;;;;;;9.20;2.72;;;;;;;32.80;22.56;99253.28;5032257;28;20025;-37
2022/08/01 07:02:41;;;;;;;6.40;2.42;;;;;;;31.99;23.53;99259.44;5031346;28;20045;-37
2022/08/01 07:05:07;;;;;;;5.55;2.35;;;;;;;32.40;23.71;99265.47;5031281;28;20145;-37
2022/08/01 07:07:33;;;;;;;5.28;2.30;;;;;;;32.22;23.72;99254.88;5031747;28;20025;-37
2022/08/01 07:09:58;;;;;;;4.40;2.10;;;;;;;32.76;22.88;99263.44;5031647;28;20128;-37
2022/08/01 07:12:23;;;;;;;2.75;2.00;;;;;;;32.22;23.56;99260.38;5031512;28;20056;-37
2022/08/01 07:14:49;;;;;;;6.40;2.45;;;;;;;32.52;23.39;99257.84;5031173;28;20420;-38
2022/08/01 07:17:14;;;;;;;4.88;3.22;;;;;;;33.29;22.80;99263.63;5031771;28;20013;-37
2022/08/01 07:19:40;;;;;;;4.15;2.70;;;;;;;34.11;21.78;99261.34;5029642;28;20112;-37
2022/08/01 07:22:05;;;;;;;10.05;4.20;;;;;;;33.28;22.54;99265.59;5031254;28;20021;-37
2022/08/01 07:24:31;;;;;;;8.52;2.38;;;;;;;32.98;22.84;99261.91;5031167;28;20189;-37
2022/08/01 07:26:57;;;;;;;3.95;2.20;;;;;;;33.31;22.96;99250.28;5030808;28;20067;-37
2022/08/01 07:29:26;;;;;;;5.28;2.28;;;;;;;33.42;22.31;99242.19;5031290;28;20033;-37
2022/08/01 07:31:56;;;;;;;5.13;2.22;;;;;;;33.82;22.33;99254.66;5030801;28;20498;-37
2022/08/01 07:34:23;;;;;;;5.43;2.90;;;;;;;33.73;22.01;99248.59;5030174;28;20022;-37
2022/08/01 07:36:49;;;;;;;7.18;2.55;;;;;;;33.12;22.63;99229.09;5030470;28;20045;-37
2022/08/01 07:39:14;;;;;;;5.45;2.10;;;;;;;32.60;22.98;99236.00;5030870;28;20067;-38
2022/08/01 07:41:39;;;;;;;3.78;2.30;;;;;;;32.68;23.14;99238.50;5030689;28;20025;-37
2022/08/01 07:44:05;;;;;;;4.30;2.20;;;;;;;32.97;23.11;99252.03;5030759;28;20100;-37
2022/08/01 07:46:30;;;;;;;4.22;1.90;;;;;;;33.15;22.79;99230.31;5030498;28;20499;-37
2022/08/01 07:48:56;;;;;;;3.80;2.10;;;;;;;32.66;22.87;99232.56;5030928;28;20017;-36
2022/08/01 07:51:22;;;;;;;6.13;2.08;;;;;;;32.73;22.93;99224.47;5030595;28;20495;-36
2022/08/01 07:53:48;;;;;;;4.00;2.15;;;;;;;33.40;22.81;99239.00;5030657;28;20044;-37
2022/08/01 07:56:13;;;;;;;4.28;2.20;;;;;;;33.08;22.63;99233.72;5030665;28;20078;-37
2022/08/01 07:58:39;;;;;;;8.15;2.15;;;;;;;33.64;22.22;99235.06;5030319;28;20028;-37
2022/08/01 08:01:04;;;;;;;4.72;1.92;;;;;;;34.09;22.17;99228.59;5030325;28;20044;-37
2022/08/01 08:03:30;;;;;;;3.85;1.83;;;;;;;33.14;22.67;99214.94;5030292;28;20025;-37
2022/08/01 08:05:55;;;;;;;4.75;2.00;;;;;;;33.52;22.46;99215.94;5030544;28;20025;-37
2022/08/01 08:08:21;;;;;;;6.82;2.03;;;;;;;33.22;22.43;99222.16;5029881;28;20531;-37
2022/08/01 08:10:47;;;;;;;4.13;1.92;;;;;;;33.63;22.23;99209.44;5030490;28;20045;-36
2022/08/01 08:13:12;;;;;;;3.97;1.75;;;;;;;33.46;22.09;99202.47;5030204;28;20053;-36
2022/08/01 08:15:38;;;;;;;4.40;2.20;;;;;;;32.92;22.95;99212.59;5029980;28;20036;-38
2022/08/01 08:18:04;;;;;;;6.75;2.10;;;;;;;32.99;22.54;99195.38;5030211;28;20089;-38
2022/08/01 08:20:29;;;;;;;9.93;2.20;;;;;;;32.65;22.52;99205.41;5030088;28;20044;-37
2022/08/01 08:22:57;;;;;;;3.45;2.00;;;;;;;33.05;22.49;99209.66;5030170;28;20017;-37
2022/08/01 08:25:25;;;;;;;6.47;2.10;;;;;;;33.32;22.07;99202.28;5030062;28;20025;-37
2022/08/01 08:27:51;;;;;;;3.25;2.00;;;;;;;33.57;22.33;99210.13;5030153;28;20384;-37
2022/08/01 08:30:16;;;;;;;6.00;2.30;;;;;;;32.96;22.55;99198.06;5030048;28;20025;-37
2022/08/01 08:32:42;;;;;;;6.50;2.13;;;;;;;32.41;23.06;99206.50;5030174;28;20024;-37
2022/08/01 08:35:08;;;;;;;3.47;1.73;;;;;;;32.64;23.14;99212.09;5030319;28;20029;-37
2022/08/01 08:37:35;;;;;;;5.57;1.92;;;;;;;33.14;22.44;99190.94;5030112;28;20516;-37
2022/08/01 08:40:02;;;;;;;6.88;2.00;;;;;;;33.20;22.80;99197.72;5029888;28;20049;-38
2022/08/01 08:42:27;;;;;;;4.15;2.08;;;;;;;33.54;22.00;99178.56;5030080;28;20369;-36
2022/08/01 08:44:56;;;;;;;5.70;2.03;;;;;;;32.62;23.17;99195.91;5029738;28;20025;-38
2022/08/01 08:47:23;;;;;;;5.72;1.90;;;;;;;32.68;22.96;99193.66;5033065;28;20037;-38
2022/08/01 08:49:52;;;;;;;3.70;2.10;;;;;;;33.30;23.04;99197.13;5033741;28;20037;-35
2022/08/01 08:52:20;;;;;;;6.95;2.28;;;;;;;33.09;22.89;99199.47;5033797;28;20199;-37
2022/08/01 08:54:47;;;;;;;4.88;1.90;;;;;;;33.44;22.22;99196.53;5033406;28;20036;-37
2022/08/01 08:57:14;;;;;;;2.33;1.70;;;;;;;32.95;23.10;99190.97;5032791;28;20108;-37
2022/08/01 08:59:42;;;;;;;3.92;1.80;;;;;;;32.77;23.18;99191.47;5033346;28;20033;-38
2022/08/01 09:02:09;;;;;;;3.13;1.92;;;;;;;32.74;23.74;99194.94;5033636;28;20040;-37
2022/08/01 09:04:35;;;;;;;5.90;2.10;;;;;;;33.07;23.30;99179.75;5031780;28;20543;-37
2022/08/01 09:07:03;;;;;;;7.20;1.90;;;;;;;32.89;23.35;99187.72;5033037;28;20048;-37
2022/08/01 09:09:29;;;;;;;6.47;2.10;;;;;;;33.04;23.16;99191.53;5034214;28;20450;-37
2022/08/01 09:11:54;;;;;;;4.35;2.30;;;;;;;32.90;23.33;99190.13;5033559;28;20430;-37
2022/08/01 09:14:23;;;;;;;4.82;1.88;;;;;;;33.16;23.58;99182.31;5033590;28;20037;-38
2022/08/01 09:17:07;;;;;;;3.33;1.70;;;;;;;32.80;23.87;99189.94;5033439;28;20545;-37
2022/08/01 09:19:38;;;;;;;5.60;1.85;;;;;;;32.90;23.46;99179.13;5033020;28;20112;-37
2022/08/01 09:22:05;;;;;;;6.00;2.00;;;;;;;33.38;23.08;99175.97;5033231;28;20087;-35
2022/08/01 09:24:31;;;;;;;3.03;2.10;;;;;;;33.74;22.53;99179.28;5032830;28;20127;-38
2022/08/01 09:26:59;;;;;;;5.72;1.92;;;;;;;33.22;23.25;99175.31;5033148;28;20038;-38
2022/08/01 09:29:27;;;;;;;8.43;1.77;;;;;;;32.82;23.82;99179.34;5033246;28;20083;-38
2022/08/01 09:31:53;;;;;;;6.00;1.65;;;;;;;32.69;24.08;99176.78;5032932;28;20021;-36
2022/08/01 09:34:35;;;;;;;4.15;1.70;;;;;;;32.90;23.76;99179.13;5032671;28;20254;-37
2022/08/01 09:37:02;;;;;;;12.48;1.80;;;;;;;32.99;23.65;99167.81;5032961;28;20033;-37
2022/08/01 09:39:29;;;;;;;2.00;1.55;;;;;;;32.68;23.92;99158.66;5033094;28;20064;-38
2022/08/01 09:41:56;;;;;;;4.07;1.65;;;;;;;33.18;23.62;99163.44;5032796;28;20390;-37
2022/08/01 09:44:39;;;;;;;2.33;1.80;;;;;;;33.00;23.83;99155.66;5031887;28;20033;-37
2022/08/01 09:47:04;;;;;;;2.90;1.67;;;;;;;32.71;24.15;99166.19;5032132;28;20104;-38
2022/08/01 09:49:32;;;;;;;2.88;1.95;;;;;;;32.39;25.03;99164.78;5032276;28;20163;-38
2022/08/01 09:51:59;;;;;;;3.67;1.85;;;;;;;32.96;23.91;99151.22;5032623;28;20087;-37
2022/08/01 09:54:32;;;;;;;2.78;1.67;;;;;;;33.32;23.46;99158.16;5032210;28;20568;-37
2022/08/01 09:57:12;;;;;;;4.13;1.85;;;;;;;33.00;24.01;99160.38;5032520;28;20115;-37
2022/08/01 09:59:40;;;;;;;;;;;;;;;33.40;23.82;99151.56;5032962;28;20029;-37
2022/08/01 10:02:07;;;;;;;3.42;2.10;;;;;;;33.34;23.68;99155.81;5032543;28;19982;-36
2022/08/01 10:04:33;;;;;;;5.97;1.92;;;;;;;33.01;23.84;99157.22;5032285;28;20021;-36
2022/08/01 10:07:07;;;;;;;3.67;2.00;;;;;;;32.61;24.36;99128.22;5032168;28;20115;-37
2022/08/01 10:09:35;;;;;;;5.28;1.90;;;;;;;32.82;24.73;99147.06;5032322;28;20032;-37
2022/08/01 10:12:01;;;;;;;6.18;2.00;;;;;;;32.84;24.29;99149.47;5032184;28;20058;-38
2022/08/01 10:14:28;;;;;;;3.05;1.85;;;;;;;32.80;24.51;99137.59;5031894;28;20091;-37
2022/08/01 10:16:56;;;;;;;4.65;1.77;;;;;;;33.07;23.84;99130.97;5031801;28;20520;-37
2022/08/01 10:19:23;;;;;;;4.70;1.70;;;;;;;32.78;24.53;99135.19;5031828;28;20402;-37
2022/08/01 10:21:53;;;;;;;2.80;1.70;;;;;;;32.92;24.28;99151.19;5032198;28;20025;-37
2022/08/01 10:24:20;;;;;;;4.35;1.80;;;;;;;32.81;24.12;99136.44;5031700;28;20036;-37
2022/08/01 10:26:52;;;;;;;4.60;1.90;;;;;;;33.20;23.89;99141.81;5031844;28;20083;-37
2022/08/01 10:29:20;;;;;;;4.20;1.90;;;;;;;33.42;24.01;99143.72;5031935;28;20067;-37
2022/08/01 10:31:46;;;;;;;6.73;1.63;;;;;;;32.79;24.63;99133.25;5032213;28;20029;-37
2022/08/01 10:34:18;;;;;;;6.30;1.60;;;;;;;32.83;24.28;99125.84;5031805;28;20283;-38
2022/08/01 10:36:48;;;;;;;4.72;1.65;;;;;;;32.70;24.61;99139.78;5031593;28;20029;-36
2022/08/01 10:39:13;;;;;;;4.60;1.60;;;;;;;32.92;24.29;99129.16;5031985;28;20029;-37
2022/08/01 10:41:40;;;;;;;8.82;1.98;;;;;;;32.89;24.62;99144.44;5031732;28;20109;-37
2022/08/01 10:44:09;;;;;;;7.43;1.70;;;;;;;33.66;23.58;99128.72;5031677;28;20559;-37
2022/08/01 10:46:42;;;;;;;7.80;2.00;;;;;;;33.49;23.79;99143.00;5031875;28;20033;-37
2022/08/01 10:49:12;;;;;;;5.63;2.00;;;;;;;32.85;24.05;99140.84;5031447;28;20033;-37
2022/08/01 10:51:39;;;;;;;3.85;2.50;;;;;;;33.00;24.46;99144.63;5031593;28;20485;-36
2022/08/01 10:54:10;;;;;;;4.43;2.33;;;;;;;33.43;24.27;99136.25;5031386;28;20029;-37
2022/08/01 10:56:46;;;;;;;5.95;3.10;;;;;;;33.66;23.77;99142.53;5031413;28;20029;-37
2022/08/01 10:59:22;;;;;;;6.85;2.30;;;;;;;32.82;24.02;99135.28;5031194;28;20060;-37
2022/08/01 11:02:04;;;;;;;5.65;2.35;;;;;;;33.34;23.58;99133.78;5031396;28;20516;-37
2022/08/01 11:04:49;;;;;;;6.50;2.55;;;;;;;33.12;24.21;99143.66;5031321;28;20037;-37
2022/08/01 11:07:23;;;;;;;3.00;2.10;;;;;;;33.79;24.08;99139.53;5031287;28;20075;-37
2022/08/01 11:10:03;;;;;;;3.47;1.70;;;;;;;34.17;23.34;99130.16;5031426;28;20382;-35
2022/08/01 11:12:46;;;;;;;2.50;1.80;;;;;;;34.76;22.74;99126.81;5031393;28;20049;-36
2022/08/01 11:15:12;;;;;;;3.25;1.90;;;;;;;35.33;22.72;99121.75;5031125;28;20026;-37
2022/08/01 11:17:48;;;;;;;4.65;1.90;;;;;;;34.57;22.87;99120.31;5031143;28;20029;-37
2022/08/01 11:20:19;;;;;;;5.40;1.70;;;;;;;34.53;23.06;99125.00;5030867;28;20079;-37
2022/08/01 11:25:48;;;;;;;6.10;2.85;;;;;;;33.65;23.79;99123.59;5030910;28;20029;-37
2022/08/01 11:28:14;;;;;;;5.20;2.15;;;;;;;34.01;23.49;99133.09;5024140;28;20034;-37
2022/08/01 11:31:09;;;;;;;2.88;2.00;;;;;;;34.75;22.51;99111.41;5030467;28;20484;-37
2022/08/01 11:33:41;;;;;;;7.07;3.78;;;;;;;34.85;22.92;99108.75;5021400;28;20041;-37
2022/08/01 11:36:15;;;;;;;8.63;4.95;;;;;;;35.74;21.94;99107.78;5030501;28;20049;-36
2022/08/01 11:38:43;;;;;;;9.15;4.22;;;;;;;35.42;21.97;99130.50;5030596;28;20021;-36
2022/08/01 11:41:19;;;;;;;4.30;2.50;;;;;;;35.43;22.16;99114.69;5030426;28;20033;-36